Time;durP1;ratioP1;P1;durP2;ratioP2;P2;SDS_P1;SDS_P2;PMS_P1;PMS_P2;Temp;Humidity;BMP_temperature;BMP_pressure;BME280_temperature;BME280_humidity;BME280_pressure;Samples;Min_cycle;Max_cycle;Signal;HPM_P1;HPM_P2
2022/03/09 00:01:29;;;;;;;7.43;4.70;;;-1.60;99.90;;;;;;5012038;28;20280;-68
2022/03/09 00:03:59;;;;;;;8.13;5.00;;;-1.70;99.90;;;;;;5011972;28;20685;-68
2022/03/09 00:06:27;;;;;;;7.80;5.10;;;-1.60;99.90;;;;;;5012244;28;20217;-69
2022/03/09 00:08:54;;;;;;;7.00;4.77;;;-1.70;99.90;;;;;;5011920;28;20202;-68
2022/03/09 00:11:21;;;;;;;5.93;4.50;;;-1.60;99.90;;;;;;5011368;28;20235;-69
2022/03/09 00:13:48;;;;;;;7.53;4.90;;;-1.60;99.90;;;;;;5011777;28;20245;-68
2022/03/09 00:16:16;;;;;;;7.97;4.87;;;-1.70;99.90;;;;;;5011719;28;20274;-68
2022/03/09 00:18:44;;;;;;;6.67;4.73;;;-1.70;99.90;;;;;;5011683;28;20210;-68
2022/03/09 00:21:11;;;;;;;8.47;5.20;;;-1.70;99.90;;;;;;5011852;28;20211;-69
2022/03/09 00:23:38;;;;;;;8.93;5.27;;;-1.80;99.90;;;;;;5011881;28;20588;-69
2022/03/09 00:26:06;;;;;;;8.17;5.17;;;-1.80;99.90;;;;;;5011803;28;20213;-68
2022/03/09 00:28:33;;;;;;;9.50;5.20;;;-1.80;99.90;;;;;;5011521;28;20218;-70
2022/03/09 00:31:01;;;;;;;7.50;5.17;;;-1.90;99.90;;;;;;5011530;28;20207;-70
2022/03/09 00:33:28;;;;;;;9.10;5.47;;;-1.90;99.90;;;;;;5013562;28;20217;-71
2022/03/09 00:35:56;;;;;;;9.33;5.60;;;-1.90;99.90;;;;;;5015312;28;20202;-69
2022/03/09 00:38:23;;;;;;;10.00;5.57;;;-1.90;99.90;;;;;;5015017;28;20211;-68
2022/03/09 00:40:51;;;;;;;8.87;5.17;;;-1.80;99.90;;;;;;5015136;28;20206;-69
2022/03/09 00:43:18;;;;;;;6.93;5.00;;;-1.70;99.90;;;;;;5014868;28;20203;-68
2022/03/09 00:45:46;;;;;;;10.27;5.50;;;-1.70;99.90;;;;;;5015142;28;20226;-68
2022/03/09 00:48:14;;;;;;;6.33;4.87;;;-1.70;99.90;;;;;;5014751;28;20206;-68
2022/03/09 00:50:41;;;;;;;8.93;5.30;;;-1.70;99.90;;;;;;5015275;28;20591;-69
2022/03/09 00:53:09;;;;;;;8.73;5.30;;;-1.70;99.90;;;;;;5015651;28;20207;-69
2022/03/09 00:55:36;;;;;;;8.90;5.67;;;-1.70;99.90;;;;;;5015513;28;20211;-68
2022/03/09 00:58:04;;;;;;;10.07;5.53;;;-1.60;99.90;;;;;;5014569;28;20218;-68
2022/03/09 01:00:31;;;;;;;7.90;5.17;;;-1.60;99.90;;;;;;5014652;28;20202;-69
2022/03/09 01:02:58;;;;;;;8.53;5.33;;;-1.70;99.90;;;;;;5014637;28;20203;-69
2022/03/09 01:05:25;;;;;;;8.30;5.50;;;-1.70;99.90;;;;;;5014530;28;20226;-68
2022/03/09 01:07:52;;;;;;;8.03;5.23;;;-1.70;99.90;;;;;;5014346;28;20202;-69
2022/03/09 01:10:21;;;;;;;9.00;5.57;;;-1.70;99.90;;;;;;5014593;28;20579;-69
2022/03/09 01:12:48;;;;;;;9.37;5.67;;;-1.70;99.90;;;;;;5014354;28;20195;-69
2022/03/09 01:15:15;;;;;;;8.23;5.60;;;-1.70;99.90;;;;;;5014530;28;20720;-68
2022/03/09 01:17:42;;;;;;;8.90;6.17;;;-1.60;99.90;;;;;;5014697;28;20664;-69
2022/03/09 01:20:11;;;;;;;13.20;6.00;;;-1.70;99.90;;;;;;5014086;28;20207;-68
2022/03/09 01:22:38;;;;;;;7.77;5.37;;;-1.80;99.90;;;;;;5014807;28;20238;-68
2022/03/09 01:25:06;;;;;;;7.50;5.30;;;-1.80;99.90;;;;;;5013977;28;20242;-69
2022/03/09 01:27:35;;;;;;;8.97;6.00;;;-1.80;99.90;;;;;;5014581;28;20657;-68
2022/03/09 01:30:02;;;;;;;9.63;5.83;;;-1.80;99.90;;;;;;5014013;28;20207;-71
2022/03/09 01:32:29;;;;;;;9.37;5.90;;;-1.80;99.90;;;;;;5014053;28;20203;-70
2022/03/09 01:34:57;;;;;;;9.90;6.30;;;-1.80;99.90;;;;;;5014154;28;20558;-69
2022/03/09 01:37:24;;;;;;;9.57;6.43;;;-1.80;99.90;;;;;;5013919;28;20214;-68
2022/03/09 01:39:51;;;;;;;10.67;6.53;;;-1.90;99.90;;;;;;5013721;28;20207;-68
2022/03/09 01:42:19;;;;;;;10.20;6.13;;;-1.90;99.90;;;;;;5013912;28;20222;-69
2022/03/09 01:44:47;;;;;;;11.07;6.60;;;-1.90;99.90;;;;;;5013024;28;20385;-69
2022/03/09 01:47:14;;;;;;;10.67;6.30;;;-2.00;99.90;;;;;;5013966;28;20572;-69
2022/03/09 01:49:42;;;;;;;9.00;5.90;;;-2.00;99.90;;;;;;5013662;28;20210;-68
2022/03/09 01:52:10;;;;;;;11.93;6.47;;;-2.00;99.90;;;;;;5013515;28;20209;-69
2022/03/09 01:54:39;;;;;;;11.83;6.70;;;-2.00;99.90;;;;;;5013912;28;20569;-69
2022/03/09 01:57:07;;;;;;;11.53;6.70;;;-2.00;99.90;;;;;;5013659;28;20638;-68
2022/03/09 01:59:34;;;;;;;12.10;6.83;;;-2.00;99.90;;;;;;5013471;28;20211;-69
2022/03/09 02:02:03;;;;;;;11.43;6.43;;;-2.00;99.90;;;;;;5013446;28;20211;-68
2022/03/09 02:04:30;;;;;;;9.33;6.23;;;-2.00;99.90;;;;;;5013382;28;20202;-69
2022/03/09 02:06:58;;;;;;;9.90;6.57;;;-2.00;99.90;;;;;;5013300;28;20305;-69
2022/03/09 02:09:44;;;;;;;11.70;6.20;;;-2.00;99.90;;;;;;5013406;28;20214;-68
2022/03/09 02:12:13;;;;;;;18.30;8.67;;;-2.00;99.90;;;;;;5013091;28;20234;-69
2022/03/09 02:14:42;;;;;;;20.83;9.87;;;-2.00;99.90;;;;;;5013600;28;20657;-69
2022/03/09 02:17:13;;;;;;;22.87;10.47;;;-2.10;99.90;;;;;;5013303;28;20199;-69
2022/03/09 02:19:41;;;;;;;22.13;10.77;;;-2.10;99.90;;;;;;5013699;28;20191;-68
2022/03/09 02:22:12;;;;;;;22.33;11.03;;;-2.10;99.90;;;;;;5013177;28;20217;-68
2022/03/09 02:24:41;;;;;;;27.10;11.13;;;-2.10;99.90;;;;;;5013102;28;20218;-69
2022/03/09 02:27:08;;;;;;;24.47;11.17;;;-2.20;99.90;;;;;;5012967;28;20214;-69
2022/03/09 02:29:35;;;;;;;24.07;10.60;;;-2.20;99.90;;;;;;5013105;28;20209;-68
2022/03/09 02:32:03;;;;;;;22.47;10.27;;;-2.20;99.90;;;;;;5012802;28;20240;-69
2022/03/09 02:34:31;;;;;;;21.67;10.00;;;-2.20;99.90;;;;;;5012900;28;20221;-70
2022/03/09 02:36:58;;;;;;;22.80;10.40;;;-2.20;99.90;;;;;;5012683;28;20203;-69
2022/03/09 02:39:26;;;;;;;20.80;9.50;;;-2.30;99.90;;;;;;5013528;28;20214;-69
2022/03/09 02:41:54;;;;;;;24.37;10.67;;;-2.30;99.90;;;;;;5012781;28;20207;-69
2022/03/09 02:44:22;;;;;;;25.27;10.73;;;-2.30;99.90;;;;;;5012680;28;20217;-68
2022/03/09 02:46:49;;;;;;;28.20;11.03;;;-2.30;99.90;;;;;;5012521;28;20235;-68
2022/03/09 02:49:16;;;;;;;24.63;10.43;;;-2.30;99.90;;;;;;5012783;28;20203;-69
2022/03/09 02:51:43;;;;;;;25.73;11.17;;;-2.20;99.90;;;;;;5012729;28;20603;-68
2022/03/09 02:54:10;;;;;;;25.77;10.57;;;-2.20;99.90;;;;;;5013101;28;20217;-68
2022/03/09 02:56:37;;;;;;;26.70;10.27;;;-2.20;99.90;;;;;;5011625;28;20207;-68
2022/03/09 02:59:06;;;;;;;23.67;10.57;;;-2.20;99.90;;;;;;5012699;28;20217;-68
2022/03/09 03:01:33;;;;;;;25.93;11.20;;;-2.20;99.90;;;;;;5012555;28;20211;-69
2022/03/09 03:04:00;;;;;;;25.27;10.90;;;-2.30;99.90;;;;;;5012310;28;20217;-68
2022/03/09 03:06:27;;;;;;;24.00;12.50;;;-2.30;99.90;;;;;;5012213;28;20226;-68
2022/03/09 03:08:55;;;;;;;32.37;11.40;;;-2.30;99.90;;;;;;5012184;28;20206;-68
2022/03/09 03:11:22;;;;;;;29.40;11.73;;;-2.30;99.90;;;;;;5012295;28;20607;-69
2022/03/09 03:13:50;;;;;;;27.80;12.20;;;-2.40;99.90;;;;;;5012367;28;20214;-69
2022/03/09 03:16:18;;;;;;;31.30;11.00;;;-2.40;99.90;;;;;;5012559;28;20226;-68
2022/03/09 03:18:45;;;;;;;22.13;10.30;;;-2.40;99.90;;;;;;5012526;28;20226;-69
2022/03/09 03:21:13;;;;;;;19.10;8.87;;;-2.40;99.90;;;;;;5012278;28;20393;-68
2022/03/09 03:23:40;;;;;;;16.70;8.57;;;-2.50;99.90;;;;;;5012253;28;20213;-68
2022/03/09 03:26:07;;;;;;;17.23;8.07;;;-2.50;99.90;;;;;;5012062;28;20223;-68
2022/03/09 03:28:34;;;;;;;20.37;8.67;;;-2.50;99.90;;;;;;5011852;28;20207;-69
2022/03/09 03:31:02;;;;;;;18.10;8.07;;;-2.50;99.90;;;;;;5012154;28;20210;-69
2022/03/09 03:33:30;;;;;;;20.63;8.87;;;-2.50;99.90;;;;;;5012443;28;20206;-69
2022/03/09 03:35:57;;;;;;;21.30;9.17;;;-2.50;99.90;;;;;;5011880;28;20321;-68
2022/03/09 03:38:24;;;;;;;21.70;9.27;;;-2.60;99.90;;;;;;5012361;28;20203;-69
2022/03/09 03:40:52;;;;;;;20.77;9.40;;;-2.60;99.90;;;;;;5011961;28;20321;-69
2022/03/09 03:43:19;;;;;;;22.47;9.47;;;-2.60;99.90;;;;;;5011836;28;20206;-69
2022/03/09 03:45:46;;;;;;;17.33;8.50;;;-2.70;99.90;;;;;;5012074;28;20225;-68
2022/03/09 03:48:13;;;;;;;18.33;8.67;;;-2.80;99.90;;;;;;5012222;28;20717;-69
2022/03/09 03:50:41;;;;;;;18.30;8.00;;;-2.80;99.90;;;;;;5011685;28;20234;-69
2022/03/09 03:53:09;;;;;;;13.03;7.30;;;-2.80;99.90;;;;;;5012111;28;20202;-69
2022/03/09 03:55:36;;;;;;;19.53;8.27;;;-2.90;99.90;;;;;;5012100;28;20226;-68
2022/03/09 03:58:03;;;;;;;17.97;8.57;;;-2.90;99.90;;;;;;5012226;28;20215;-68
2022/03/09 04:00:30;;;;;;;19.17;8.67;;;-2.90;99.90;;;;;;5011924;28;20206;-69
2022/03/09 04:02:57;;;;;;;17.20;8.63;;;-3.00;99.90;;;;;;5012078;28;20257;-69
2022/03/09 04:05:24;;;;;;;17.83;8.80;;;-3.00;99.90;;;;;;5012076;28;20684;-68
2022/03/09 04:07:53;;;;;;;16.37;8.60;;;-3.00;99.90;;;;;;5012769;28;20206;-69
2022/03/09 04:10:20;;;;;;;16.90;8.50;;;-3.00;99.90;;;;;;5015725;28;20213;-69
2022/03/09 04:12:47;;;;;;;19.07;8.87;;;-2.90;99.90;;;;;;5015288;28;20247;-68
2022/03/09 04:15:14;;;;;;;15.27;8.40;;;-2.90;99.90;;;;;;5015442;28;20199;-68
2022/03/09 04:17:43;;;;;;;20.60;8.27;;;-2.90;99.90;;;;;;5015604;28;20203;-69
2022/03/09 04:20:12;;;;;;;15.50;8.07;;;-3.00;99.90;;;;;;5015369;28;20213;-69
2022/03/09 04:22:39;;;;;;;15.40;8.10;;;-3.00;99.90;;;;;;5015628;28;20713;-68
2022/03/09 04:25:10;;;;;;;16.00;7.70;;;-3.00;99.90;;;;;;5015402;28;20217;-70
2022/03/09 04:27:37;;;;;;;17.03;8.40;;;-3.00;99.90;;;;;;5015581;28;20552;-70
2022/03/09 04:30:06;;;;;;;14.80;7.67;;;-3.00;99.90;;;;;;5015354;28;20211;-71
2022/03/09 04:32:34;;;;;;;19.40;8.23;;;-3.10;99.90;;;;;;5015096;28;20210;-69
2022/03/09 04:35:01;;;;;;;18.03;8.27;;;-3.10;99.90;;;;;;5015268;28;20202;-70
2022/03/09 04:37:30;;;;;;;19.93;7.83;;;-3.10;99.90;;;;;;5015202;28;20210;-69
2022/03/09 04:39:58;;;;;;;17.70;8.43;;;-3.00;99.90;;;;;;5015319;28;20568;-69
2022/03/09 04:42:26;;;;;;;21.03;8.40;;;-3.00;99.90;;;;;;5014836;28;20210;-68
2022/03/09 04:44:54;;;;;;;21.57;9.53;;;-3.00;99.90;;;;;;5015021;28;20207;-69
2022/03/09 04:47:21;;;;;;;23.33;9.70;;;-3.00;99.90;;;;;;5015107;28;20462;-69
2022/03/09 04:49:50;;;;;;;18.77;9.03;;;-3.00;99.90;;;;;;5015075;28;20227;-70
2022/03/09 04:52:18;;;;;;;16.53;7.67;;;-3.00;99.90;;;;;;5015019;28;20593;-69
2022/03/09 04:54:45;;;;;;;16.87;7.87;;;-3.00;99.90;;;;;;5014503;28;20202;-68
2022/03/09 04:57:13;;;;;;;18.10;8.70;;;-3.00;99.90;;;;;;5014557;28;20203;-68
2022/03/09 04:59:41;;;;;;;17.77;7.77;;;-3.10;99.90;;;;;;5014417;28;20207;-68
2022/03/09 05:02:09;;;;;;;18.53;7.80;;;-3.10;99.90;;;;;;5014816;28;20539;-69
2022/03/09 05:04:36;;;;;;;18.60;8.00;;;-3.10;99.90;;;;;;5014897;28;20273;-69
2022/03/09 05:07:04;;;;;;;17.10;8.27;;;-3.10;99.90;;;;;;5014790;28;20618;-68
2022/03/09 05:09:31;;;;;;;21.67;8.60;;;-3.20;99.90;;;;;;5014194;28;20221;-69
2022/03/09 05:11:58;;;;;;;19.37;9.27;;;-3.20;99.90;;;;;;5014227;28;20230;-69
2022/03/09 05:14:25;;;;;;;17.60;8.90;;;-3.20;99.90;;;;;;5014384;28;20214;-69
2022/03/09 05:16:54;;;;;;;20.67;9.63;;;-3.20;99.90;;;;;;5014395;28;20203;-69
2022/03/09 05:19:21;;;;;;;19.10;9.57;;;-3.20;99.90;;;;;;5013324;28;20572;-68
2022/03/09 05:21:49;;;;;;;20.10;8.83;;;-3.10;99.90;;;;;;5014076;28;20207;-69
2022/03/09 05:24:17;;;;;;;20.33;9.77;;;-3.10;99.90;;;;;;5014427;28;20208;-68
2022/03/09 05:26:46;;;;;;;21.23;9.60;;;-3.10;99.90;;;;;;5013935;28;20226;-69
2022/03/09 05:29:14;;;;;;;18.83;9.67;;;-3.10;99.90;;;;;;5014201;28;20207;-68
2022/03/09 05:31:41;;;;;;;23.63;10.03;;;-3.10;99.90;;;;;;5013885;28;20214;-69
2022/03/09 05:34:09;;;;;;;19.77;9.50;;;-3.00;99.90;;;;;;5013806;28;20217;-69
2022/03/09 05:36:36;;;;;;;19.97;8.80;;;-3.00;99.90;;;;;;5014025;28;20561;-69
2022/03/09 05:39:04;;;;;;;17.87;8.87;;;-3.00;99.90;;;;;;5014511;28;20210;-69
2022/03/09 05:41:31;;;;;;;22.43;9.87;;;-3.00;99.90;;;;;;5014085;28;20588;-68
2022/03/09 05:43:58;;;;;;;25.10;10.13;;;-3.00;99.90;;;;;;5014236;28;20213;-68
2022/03/09 05:46:25;;;;;;;23.43;10.00;;;-3.00;99.90;;;;;;5013491;28;20233;-68
2022/03/09 05:48:52;;;;;;;20.40;9.70;;;-3.00;99.90;;;;;;5013908;28;20213;-69
2022/03/09 05:51:21;;;;;;;25.60;9.53;;;-3.00;99.90;;;;;;5013359;28;20227;-69
2022/03/09 05:53:48;;;;;;;17.20;8.67;;;-2.90;99.90;;;;;;5013603;28;20202;-70
2022/03/09 05:56:15;;;;;;;15.57;8.47;;;-2.90;99.90;;;;;;5013434;28;20210;-69
2022/03/09 05:58:43;;;;;;;16.83;8.53;;;-2.90;99.90;;;;;;5013743;28;20672;-68
2022/03/09 06:01:10;;;;;;;21.77;9.67;;;-2.90;99.90;;;;;;5013343;28;20233;-69
2022/03/09 06:03:37;;;;;;;15.50;7.77;;;-2.90;99.90;;;;;;5013203;28;20203;-69
2022/03/09 06:06:04;;;;;;;18.40;8.90;;;-2.90;99.90;;;;;;5013479;28;20225;-69
2022/03/09 06:08:32;;;;;;;16.43;7.73;;;-2.80;99.90;;;;;;5013393;28;20214;-69
2022/03/09 06:11:00;;;;;;;11.53;7.00;;;-2.80;99.90;;;;;;5013171;28;20274;-69
2022/03/09 06:13:27;;;;;;;14.50;7.57;;;-2.80;99.90;;;;;;5013037;28;20207;-70
2022/03/09 06:15:54;;;;;;;13.57;7.70;;;-2.80;99.90;;;;;;5013474;28;20568;-68
2022/03/09 06:18:21;;;;;;;15.30;8.83;;;-2.80;99.90;;;;;;5013191;28;20216;-69
2022/03/09 06:20:50;;;;;;;13.53;8.00;;;-2.80;99.90;;;;;;5013389;28;20213;-69
2022/03/09 06:23:17;;;;;;;10.30;6.47;;;-2.80;99.90;;;;;;5013151;28;20269;-69
2022/03/09 06:25:46;;;;;;;9.30;6.10;;;-2.80;99.90;;;;;;5013274;28;20210;-68
2022/03/09 06:28:13;;;;;;;10.40;6.53;;;-2.80;99.90;;;;;;5012868;28;20212;-69
2022/03/09 06:30:41;;;;;;;9.97;6.40;;;-2.70;99.90;;;;;;5013286;28;20207;-69
2022/03/09 06:33:08;;;;;;;9.13;6.13;;;-2.70;99.90;;;;;;5012617;28;20215;-68
2022/03/09 06:35:35;;;;;;;10.13;6.37;;;-2.70;99.90;;;;;;5012774;28;20210;-69
2022/03/09 06:38:03;;;;;;;12.27;6.73;;;-2.70;99.90;;;;;;5013059;28;20653;-70
2022/03/09 06:40:30;;;;;;;11.10;6.73;;;-2.70;99.90;;;;;;5012872;28;20597;-68
2022/03/09 06:43:00;;;;;;;12.23;7.33;;;-2.70;99.90;;;;;;5012739;28;20206;-69
2022/03/09 06:45:27;;;;;;;12.17;7.60;;;-2.60;99.90;;;;;;5012896;28;20210;-69
2022/03/09 06:47:54;;;;;;;11.83;7.87;;;-2.60;99.90;;;;;;5012898;28;20578;-69
2022/03/09 06:50:22;;;;;;;13.33;7.97;;;-2.50;99.90;;;;;;5012354;28;20227;-70
2022/03/09 06:52:49;;;;;;;14.00;8.17;;;-2.50;99.90;;;;;;5012516;28;20241;-70
2022/03/09 06:55:17;;;;;;;14.57;7.80;;;-2.50;99.90;;;;;;5012261;28;20217;-68
2022/03/09 06:57:44;;;;;;;12.63;7.73;;;-2.50;99.90;;;;;;5012430;28;20229;-68
2022/03/09 07:00:15;;;;;;;12.13;7.57;;;-2.50;99.90;;;;;;5012612;28;20591;-68
2022/03/09 07:02:43;;;;;;;11.83;7.60;;;-2.50;99.90;;;;;;5012248;28;20215;-69
2022/03/09 07:05:11;;;;;;;14.33;8.03;;;-2.50;99.90;;;;;;5012327;28;20206;-69
2022/03/09 07:07:38;;;;;;;13.30;8.00;;;-2.50;99.90;;;;;;5012243;28;20234;-70
2022/03/09 07:10:10;;;;;;;14.87;8.10;;;-2.40;99.90;;;;;;5012167;28;20218;-70
2022/03/09 07:12:38;;;;;;;12.77;7.73;;;-2.30;99.90;;;;;;5012309;28;20235;-69
2022/03/09 07:15:06;;;;;;;12.13;7.77;;;-2.30;99.90;;;;;;5012414;28;20222;-69
2022/03/09 07:17:34;;;;;;;16.23;8.17;;;-2.30;99.90;;;;;;5012561;28;20202;-68
2022/03/09 07:20:01;;;;;;;12.17;7.10;;;-2.20;99.90;;;;;;5012050;28;20203;-69
2022/03/09 07:22:29;;;;;;;12.00;7.73;;;-2.20;99.90;;;;;;5012351;28;20558;-69
2022/03/09 07:24:56;;;;;;;11.33;7.20;;;-2.10;99.90;;;;;;5012123;28;20207;-70
2022/03/09 07:27:23;;;;;;;12.33;7.97;;;-2.00;99.90;;;;;;5011799;28;20233;-69
2022/03/09 07:29:50;;;;;;;12.53;7.80;;;-2.00;99.90;;;;;;5011869;28;20202;-70
2022/03/09 07:32:17;;;;;;;12.23;7.40;;;-1.90;99.90;;;;;;5011967;28;20210;-70
2022/03/09 07:34:46;;;;;;;15.17;8.13;;;-1.90;99.90;;;;;;5012097;28;20206;-69
2022/03/09 07:37:13;;;;;;;16.50;8.27;;;-1.90;99.90;;;;;;5011768;28;20209;-71
2022/03/09 07:39:41;;;;;;;14.77;8.37;;;-1.80;99.90;;;;;;5012282;28;20210;-69
2022/03/09 07:42:08;;;;;;;11.37;7.17;;;-1.80;99.90;;;;;;5011794;28;20217;-69
2022/03/09 07:44:35;;;;;;;15.27;8.00;;;-1.70;99.90;;;;;;5016054;28;20202;-69
2022/03/09 07:47:03;;;;;;;12.90;8.07;;;-1.70;99.90;;;;;;5015704;28;20233;-69
2022/03/09 07:49:33;;;;;;;13.90;7.93;;;-1.60;99.90;;;;;;5015879;28;20226;-71
2022/03/09 07:52:02;;;;;;;14.67;7.83;;;-1.60;99.90;;;;;;5015705;28;20195;-69
2022/03/09 07:54:29;;;;;;;14.10;8.30;;;-1.50;99.90;;;;;;5015701;28;20236;-69
2022/03/09 07:56:57;;;;;;;13.40;7.97;;;-1.40;99.90;;;;;;5015802;28;20211;-71
2022/03/09 07:59:26;;;;;;;14.20;7.83;;;-1.40;99.90;;;;;;5016010;28;20229;-69
2022/03/09 08:01:54;;;;;;;14.70;8.27;;;-1.30;99.90;;;;;;5015708;28;20297;-69
2022/03/09 08:04:22;;;;;;;15.63;8.50;;;-1.30;99.90;;;;;;5015848;28;20219;-69
2022/03/09 08:06:50;;;;;;;16.03;8.50;;;-1.30;99.90;;;;;;5015557;28;20230;-69
2022/03/09 08:09:19;;;;;;;16.27;8.23;;;-1.20;99.90;;;;;;5015575;28;20206;-69
2022/03/09 08:11:47;;;;;;;14.70;8.10;;;-1.20;99.90;;;;;;5015239;28;20610;-70
2022/03/09 08:14:15;;;;;;;14.70;7.90;;;-1.10;99.90;;;;;;5015366;28;20233;-69
2022/03/09 08:16:42;;;;;;;15.10;8.50;;;-1.10;99.90;;;;;;5015716;28;20677;-70
2022/03/09 08:19:09;;;;;;;14.43;9.10;;;-1.00;99.90;;;;;;5015133;28;20202;-69
2022/03/09 08:21:37;;;;;;;12.27;8.03;;;-1.00;99.90;;;;;;5015570;28;20669;-69
2022/03/09 08:24:04;;;;;;;13.70;8.50;;;-0.90;99.90;;;;;;5015269;28;20707;-68
2022/03/09 08:26:33;;;;;;;14.23;8.13;;;-0.80;99.90;;;;;;5015314;28;20227;-69
2022/03/09 08:29:01;;;;;;;19.13;9.50;;;-0.70;99.90;;;;;;5014980;28;20207;-71
2022/03/09 08:31:28;;;;;;;16.00;8.70;;;-0.60;99.90;;;;;;5015661;28;20206;-68
2022/03/09 08:33:55;;;;;;;15.50;8.40;;;-0.60;99.90;;;;;;5015058;28;20213;-70
2022/03/09 08:36:22;;;;;;;13.73;8.60;;;-0.50;99.90;;;;;;5014928;28;20214;-68
2022/03/09 08:38:50;;;;;;;14.53;8.63;;;-0.60;99.90;;;;;;5014951;28;20210;-69
2022/03/09 08:41:17;;;;;;;13.77;8.23;;;-0.60;99.90;;;;;;5014895;28;20210;-69
2022/03/09 08:43:45;;;;;;;15.07;8.73;;;-0.50;99.90;;;;;;5014831;28;20203;-69
2022/03/09 08:46:12;;;;;;;14.83;9.30;;;-0.50;99.90;;;;;;5014765;28;20349;-69
2022/03/09 08:48:40;;;;;;;14.33;9.17;;;-0.50;99.90;;;;;;5015017;28;20606;-69
2022/03/09 08:51:08;;;;;;;17.23;9.60;;;-0.50;99.90;;;;;;5014756;28;20215;-68
2022/03/09 08:53:35;;;;;;;14.27;9.07;;;-0.50;99.90;;;;;;5014686;28;20203;-69
2022/03/09 08:56:02;;;;;;;15.33;8.60;;;-0.40;99.90;;;;;;5014859;28;20206;-68
2022/03/09 08:58:30;;;;;;;13.17;8.40;;;-0.40;99.90;;;;;;5014816;28;20222;-69
2022/03/09 09:00:58;;;;;;;15.27;9.13;;;-0.50;99.90;;;;;;5014584;28;20256;-69
2022/03/09 09:03:25;;;;;;;15.57;8.70;;;-0.50;99.90;;;;;;5015014;28;20215;-68
2022/03/09 09:05:53;;;;;;;12.67;8.17;;;-0.50;99.90;;;;;;5014229;28;20214;-69
2022/03/09 09:08:20;;;;;;;14.73;8.10;;;-0.50;99.90;;;;;;5014184;28;20218;-69
2022/03/09 09:10:48;;;;;;;15.57;9.10;;;-0.50;99.90;;;;;;5014136;28;20243;-69
2022/03/09 09:13:16;;;;;;;20.60;8.17;;;-0.50;99.90;;;;;;5014603;28;20700;-71
2022/03/09 09:15:43;;;;;;;13.97;8.50;;;-0.40;99.90;;;;;;5014560;28;20564;-69
2022/03/09 09:18:12;;;;;;;15.13;8.73;;;-0.30;99.90;;;;;;5014443;28;20213;-69
2022/03/09 09:20:39;;;;;;;14.13;8.60;;;-0.10;99.90;;;;;;5014141;28;20207;-70
2022/03/09 09:23:07;;;;;;;14.57;8.47;;;0.00;99.90;;;;;;5014410;28;20207;-70
2022/03/09 09:25:34;;;;;;;12.97;8.23;;;0.00;99.90;;;;;;5014410;28;20203;-70
2022/03/09 09:28:01;;;;;;;13.73;8.40;;;0.00;99.90;;;;;;5013858;28;20580;-69
2022/03/09 09:30:30;;;;;;;14.37;8.47;;;-0.10;99.90;;;;;;5014341;28;20225;-71
2022/03/09 09:32:58;;;;;;;13.13;7.83;;;-0.20;99.90;;;;;;5014298;28;20672;-70
2022/03/09 09:35:27;;;;;;;15.93;8.70;;;-0.20;99.90;;;;;;5013919;28;20206;-71
2022/03/09 09:37:54;;;;;;;12.23;7.90;;;-0.20;99.90;;;;;;5013732;28;20210;-71
2022/03/09 09:40:21;;;;;;;12.87;7.90;;;-0.20;99.90;;;;;;5013978;28;20207;-70
2022/03/09 09:42:49;;;;;;;11.80;7.80;;;-0.30;99.90;;;;;;5013660;28;20206;-69
2022/03/09 09:45:16;;;;;;;12.87;7.70;;;-0.30;99.90;;;;;;5014088;28;20207;-70
2022/03/09 09:47:43;;;;;;;16.30;7.87;;;-0.30;99.90;;;;;;5014110;28;20219;-69
2022/03/09 09:50:13;;;;;;;13.10;8.07;;;-0.30;99.90;;;;;;5013654;28;20223;-70
2022/03/09 09:52:42;;;;;;;12.30;7.97;;;-0.20;99.90;;;;;;5014847;28;20274;-71
2022/03/09 09:55:10;;;;;;;12.03;8.20;;;-0.20;99.90;;;;;;5013593;28;20293;-69
2022/03/09 09:57:37;;;;;;;12.57;7.77;;;-0.10;99.90;;;;;;5013600;28;20207;-69
2022/03/09 10:00:06;;;;;;;14.10;7.97;;;0.00;99.90;;;;;;5013415;28;20221;-69
2022/03/09 10:02:36;;;;;;;11.53;7.50;;;0.10;99.90;;;;;;5013463;28;20202;-70
2022/03/09 10:05:04;;;;;;;12.57;7.17;;;0.20;99.90;;;;;;5013339;28;20213;-69
2022/03/09 10:07:31;;;;;;;12.07;7.60;;;0.40;99.90;;;;;;5013268;28;20234;-68
2022/03/09 10:10:00;;;;;;;16.77;9.93;;;0.50;99.90;;;;;;5014041;28;20694;-66
2022/03/09 10:12:28;;;;;;;11.47;6.77;;;0.70;99.90;;;;;;5013655;28;20235;-67
2022/03/09 10:14:56;;;;;;;10.90;6.97;;;0.70;99.90;;;;;;5013411;28;20609;-66
2022/03/09 10:17:25;;;;;;;13.13;7.73;;;0.70;99.90;;;;;;5013265;28;20206;-66
2022/03/09 10:19:55;;;;;;;11.03;7.00;;;0.70;99.90;;;;;;5013043;28;20203;-65
2022/03/09 10:22:31;;;;;;;10.83;6.83;;;0.80;99.90;;;;;;5013044;28;20203;-65
2022/03/09 10:25:18;;;;;;;10.37;6.33;;;0.90;99.90;;;;;;5013113;28;20284;-66
2022/03/09 10:27:47;;;;;;;9.40;6.20;;;1.00;99.90;;;;;;5012649;28;20211;-66
2022/03/09 10:30:17;;;;;;;10.47;6.60;;;1.00;99.90;;;;;;5012819;28;20302;-65
2022/03/09 10:32:47;;;;;;;9.17;6.50;;;1.10;99.90;;;;;;5012715;28;20199;-68
2022/03/09 10:35:16;;;;;;;11.83;7.07;;;1.10;99.90;;;;;;5013086;28;20313;-65
2022/03/09 10:37:45;;;;;;;11.70;7.67;;;1.20;99.90;;;;;;5012643;28;20203;-66
2022/03/09 10:40:16;;;;;;;10.43;7.00;;;1.20;99.90;;;;;;5012945;28;20211;-66
2022/03/09 10:42:44;;;;;;;10.87;6.67;;;1.20;99.90;;;;;;5013075;28;20191;-66
2022/03/09 10:45:11;;;;;;;13.00;6.93;;;1.20;99.90;;;;;;5013304;28;20213;-66
2022/03/09 10:47:41;;;;;;;12.13;7.00;;;1.30;99.90;;;;;;5012587;28;20233;-65
2022/03/09 10:50:19;;;;;;;10.00;6.77;;;1.40;99.90;;;;;;5012640;28;20230;-65
2022/03/09 10:52:51;;;;;;;11.00;7.20;;;1.50;99.90;;;;;;5013330;28;20582;-66
2022/03/09 10:55:29;;;;;;;12.67;7.43;;;1.60;99.90;;;;;;5012858;28;20226;-65
2022/03/09 10:58:11;;;;;;;12.70;6.87;;;1.60;99.90;;;;;;5012936;28;20534;-65
2022/03/09 11:00:41;;;;;;;9.00;6.50;;;1.70;99.90;;;;;;5012701;28;20218;-66
2022/03/09 11:03:11;;;;;;;9.20;6.57;;;1.60;99.90;;;;;;5013873;28;20732;-67
2022/03/09 11:05:48;;;;;;;10.23;6.87;;;1.60;99.90;;;;;;5013052;28;20245;-66
2022/03/09 11:08:16;;;;;;;9.60;6.80;;;1.60;99.90;;;;;;5012397;28;20210;-67
2022/03/09 11:10:46;;;;;;;7.97;6.43;;;1.50;99.90;;;;;;5012219;28;20577;-66
2022/03/09 11:13:14;;;;;;;9.50;6.27;;;1.50;99.90;;;;;;5012357;28;20202;-65
2022/03/09 11:15:43;;;;;;;10.47;6.10;;;1.50;99.90;;;;;;5012069;28;20207;-65
2022/03/09 11:18:13;;;;;;;9.93;6.50;;;1.50;99.90;;;;;;5011400;28;20349;-66
2022/03/09 11:20:41;;;;;;;12.87;6.50;;;1.50;99.90;;;;;;5012188;28;20207;-66
2022/03/09 11:23:08;;;;;;;8.47;5.97;;;1.40;99.90;;;;;;5012421;28;20206;-66
2022/03/09 11:25:37;;;;;;;9.63;6.27;;;1.40;99.90;;;;;;5012343;28;20576;-67
2022/03/09 11:28:08;;;;;;;9.00;6.10;;;1.40;99.90;;;;;;5012118;28;20223;-67
2022/03/09 11:30:36;;;;;;;11.60;6.47;;;1.40;99.90;;;;;;5012350;28;20638;-68
2022/03/09 11:33:05;;;;;;;10.80;6.00;;;1.50;99.90;;;;;;5012380;28;20207;-67
2022/03/09 11:35:38;;;;;;;8.43;5.53;;;1.50;99.90;;;;;;5012172;28;20573;-66
2022/03/09 11:38:43;;;;;;;9.20;6.57;;;1.50;99.90;;;;;;5012140;28;20218;-67
2022/03/09 11:41:17;;;;;;;8.60;5.77;;;1.50;99.90;;;;;;5012034;28;20201;-69
2022/03/09 11:43:46;;;;;;;8.23;5.17;;;1.60;99.90;;;;;;5012073;28;20441;-67
2022/03/09 11:46:14;;;;;;;8.30;5.27;;;1.70;99.90;;;;;;5011952;28;20206;-65
2022/03/09 11:48:55;;;;;;;7.93;5.37;;;1.70;99.90;;;;;;5012292;28;20693;-66
2022/03/09 11:51:24;;;;;;;9.90;6.43;;;1.70;99.90;;;;;;5012014;28;20191;-67
2022/03/09 11:53:53;;;;;;;8.67;5.47;;;1.80;99.90;;;;;;5012346;28;20591;-67
2022/03/09 11:56:33;;;;;;;9.40;5.80;;;1.70;99.90;;;;;;5011824;28;20214;-68
2022/03/09 11:59:18;;;;;;;7.20;5.37;;;1.80;99.90;;;;;;5012000;28;20211;-65
2022/03/09 12:02:22;;;;;;;14.57;5.97;;;1.80;99.90;;;;;;5011920;28;20191;-67
2022/03/09 12:04:53;;;;;;;7.80;5.53;;;1.80;99.90;;;;;;5011799;28;20190;-66
2022/03/09 12:07:59;;;;;;;9.17;5.57;;;1.90;99.90;;;;;;5012335;28;20536;-67
2022/03/09 12:10:47;;;;;;;8.60;5.50;;;1.90;99.90;;;;;;5010233;28;20256;-65
2022/03/09 12:13:16;;;;;;;9.43;5.20;;;2.00;99.90;;;;;;5011924;28;20201;-65
2022/03/09 12:16:12;;;;;;;9.07;5.40;;;2.00;99.90;;;;;;5011377;28;20207;-67
2022/03/09 12:18:41;;;;;;;8.07;5.60;;;1.90;99.90;;;;;;5009545;28;20202;-65
2022/03/09 12:21:10;;;;;;;7.23;5.03;;;1.90;99.90;;;;;;5011796;28;20551;-66
2022/03/09 12:24:29;;;;;;;11.27;5.57;;;1.90;99.90;;;;;;5011430;28;20203;-65
2022/03/09 12:26:56;;;;;;;6.93;4.80;;;1.90;99.90;;;;;;5011781;28;20195;-66
2022/03/09 12:29:38;;;;;;;7.17;5.23;;;1.80;99.90;;;;;;5013414;28;20591;-65
2022/03/09 12:32:21;;;;;;;7.73;5.37;;;1.80;99.90;;;;;;5015399;28;20668;-65
2022/03/09 12:34:50;;;;;;;8.17;5.40;;;1.70;99.90;;;;;;5015103;28;20190;-65
2022/03/09 12:37:18;;;;;;;8.77;5.23;;;1.60;99.90;;;;;;5015114;28;20206;-67
2022/03/09 12:39:50;;;;;;;7.33;5.03;;;1.60;99.90;;;;;;5015212;28;20566;-67
2022/03/09 12:42:18;;;;;;;9.10;5.40;;;1.60;99.90;;;;;;5015314;28;20661;-67
2022/03/09 12:44:46;;;;;;;8.37;5.20;;;1.60;99.90;;;;;;5015169;28;20215;-65
2022/03/09 12:47:15;;;;;;;7.90;5.30;;;1.50;99.90;;;;;;5014867;28;20207;-67
2022/03/09 12:49:44;;;;;;;11.40;5.33;;;1.60;99.90;;;;;;5014667;28;20227;-67